createdAt,value
2023-04-12T00:02:12.764Z,11.05
2023-04-12T00:04:39.407Z,10.93
2023-04-12T00:07:05.848Z,11.12
2023-04-12T00:09:32.162Z,11.22
2023-04-12T00:11:58.467Z,10.88
2023-04-12T00:14:24.792Z,11.07
2023-04-12T00:16:51.086Z,11.09
2023-04-12T00:19:17.369Z,10.82
2023-04-12T00:21:43.687Z,10.81
2023-04-12T00:24:09.978Z,11.01
2023-04-12T00:26:36.300Z,10.85
2023-04-12T00:29:02.635Z,10.78
2023-04-12T00:31:29.018Z,10.68
2023-04-12T00:33:55.709Z,10.70
2023-04-12T00:36:22.292Z,10.59
2023-04-12T00:38:48.597Z,10.67
2023-04-12T00:41:14.892Z,10.73
2023-04-12T00:43:41.207Z,10.53
2023-04-12T00:46:07.602Z,10.66
2023-04-12T00:48:34.182Z,10.70
2023-04-12T00:51:00.498Z,10.63
2023-04-12T00:53:26.911Z,10.67
2023-04-12T00:55:53.220Z,10.60
2023-04-12T00:58:19.549Z,10.65
2023-04-12T01:00:45.880Z,10.35
2023-04-12T01:03:12.363Z,10.01
2023-04-12T01:05:38.831Z,10.05
2023-04-12T01:08:05.138Z,10.17
2023-04-12T01:10:31.462Z,10.12
2023-04-12T01:12:57.820Z,10.31
2023-04-12T01:15:24.114Z,9.64
2023-04-12T01:17:50.448Z,9.91
2023-04-12T01:20:16.899Z,10.20
2023-04-12T01:22:43.239Z,9.78
2023-04-12T01:25:09.530Z,10.09
2023-04-12T01:27:35.864Z,9.90
2023-04-12T01:30:02.176Z,9.84
2023-04-12T01:32:28.502Z,9.92
2023-04-12T01:34:54.856Z,10.04
2023-04-12T01:37:21.151Z,9.98
2023-04-12T01:39:47.452Z,10.24
2023-04-12T01:42:13.756Z,10.28
2023-04-12T01:44:40.053Z,10.31
2023-04-12T01:47:06.362Z,10.36
2023-04-12T01:49:32.673Z,10.39
2023-04-12T01:51:58.968Z,10.25
2023-04-12T01:54:25.275Z,10.35
2023-04-12T01:56:51.587Z,10.23
2023-04-12T01:59:17.873Z,10.20
2023-04-12T02:01:44.395Z,9.95
2023-04-12T02:04:10.840Z,10.11
2023-04-12T02:06:37.169Z,10.28
2023-04-12T02:09:03.466Z,10.01
2023-04-12T02:11:29.815Z,10.10
2023-04-12T02:13:56.369Z,10.50
2023-04-12T02:16:23.038Z,10.49
2023-04-12T02:18:49.508Z,10.39
2023-04-12T02:21:15.816Z,10.46
2023-04-12T02:23:42.104Z,10.44
2023-04-12T02:26:08.413Z,10.47
2023-04-12T02:28:34.768Z,10.58
2023-04-12T02:31:01.212Z,10.25
2023-04-12T02:33:27.566Z,10.33
2023-04-12T02:35:53.893Z,10.29
2023-04-12T02:38:20.202Z,10.38
2023-04-12T02:40:46.568Z,10.21
2023-04-12T02:43:12.865Z,9.78
2023-04-12T02:45:39.173Z,10.07
2023-04-12T02:48:05.604Z,9.82
2023-04-12T02:50:31.934Z,9.83
2023-04-12T02:52:58.230Z,9.87
2023-04-12T02:55:24.548Z,9.98
2023-04-12T02:57:50.852Z,10.11
2023-04-12T03:00:17.167Z,10.13
2023-04-12T03:02:43.674Z,9.97
2023-04-12T03:05:10.085Z,10.17
2023-04-12T03:07:36.404Z,10.37
2023-04-12T03:10:02.713Z,10.41
2023-04-12T03:12:28.996Z,10.43
2023-04-12T03:14:55.302Z,10.44
2023-04-12T03:17:21.635Z,10.42
2023-04-12T03:19:47.997Z,10.40
2023-04-12T03:22:14.291Z,10.48
2023-04-12T03:24:40.637Z,10.39
2023-04-12T03:27:06.950Z,10.34
2023-04-12T03:29:33.257Z,10.17
2023-04-12T03:31:59.594Z,10.06
2023-04-12T03:34:25.914Z,9.94
2023-04-12T03:36:52.218Z,9.90
2023-04-12T03:39:18.541Z,10.03
2023-04-12T03:41:44.830Z,10.21
2023-04-12T03:44:11.119Z,10.18
2023-04-12T03:46:37.465Z,10.06
2023-04-12T03:49:03.779Z,9.88
2023-04-12T03:51:30.086Z,10.17
2023-04-12T03:53:56.626Z,9.94
2023-04-12T03:56:23.195Z,10.34
2023-04-12T03:58:49.495Z,9.97
2023-04-12T04:01:15.813Z,10.04
2023-04-12T04:03:42.361Z,10.02
2023-04-12T04:06:08.766Z,10.11
2023-04-12T04:08:35.089Z,9.94
2023-04-12T04:11:01.392Z,10.09
2023-04-12T04:13:27.751Z,10.06
2023-04-12T04:15:54.115Z,10.00
2023-04-12T04:18:20.405Z,10.11
2023-04-12T04:20:46.705Z,10.14
2023-04-12T04:23:13.027Z,10.23
2023-04-12T04:25:39.370Z,10.06
2023-04-12T04:28:05.709Z,10.06
2023-04-12T04:30:32.057Z,10.10
2023-04-12T04:32:58.421Z,10.15
2023-04-12T04:35:24.760Z,10.17
2023-04-12T04:37:51.137Z,10.00
2023-04-12T04:40:17.435Z,10.03
2023-04-12T04:42:43.750Z,9.91
2023-04-12T04:45:10.062Z,10.18
2023-04-12T04:47:36.354Z,9.93
2023-04-12T04:50:02.651Z,10.10
2023-04-12T04:52:28.961Z,10.07
2023-04-12T04:54:55.263Z,10.30
2023-04-12T04:57:21.555Z,9.72
2023-04-12T04:59:47.860Z,10.12
2023-04-12T05:02:14.224Z,10.07
2023-04-12T05:04:40.533Z,9.60
2023-04-12T05:07:06.848Z,9.65
2023-04-12T05:09:33.131Z,9.88
2023-04-12T05:11:59.419Z,9.89
2023-04-12T05:14:33.829Z,9.62
2023-04-12T05:17:07.882Z,9.74
2023-04-12T05:19:34.195Z,9.70
2023-04-12T05:22:00.473Z,9.89
2023-04-12T05:24:26.761Z,9.98
2023-04-12T05:26:53.089Z,9.75
2023-04-12T05:29:19.390Z,9.89
2023-04-12T05:31:45.687Z,9.89
2023-04-12T05:34:12.051Z,10.11
2023-04-12T05:36:38.355Z,9.89
2023-04-12T05:39:04.658Z,9.92
2023-04-12T05:41:30.977Z,9.95
2023-04-12T05:43:57.259Z,9.93
2023-04-12T05:46:23.605Z,9.89
2023-04-12T05:48:49.974Z,10.00
2023-04-12T05:51:16.283Z,9.85
2023-04-12T05:53:42.600Z,9.76
2023-04-12T05:56:08.923Z,9.85
2023-04-12T05:58:35.223Z,10.04
2023-04-12T06:01:01.532Z,10.09
2023-04-12T06:03:27.935Z,9.80
2023-04-12T06:05:54.305Z,9.74
2023-04-12T06:08:20.606Z,9.81
2023-04-12T06:10:46.930Z,9.88
2023-04-12T06:13:13.219Z,10.06
2023-04-12T06:15:39.549Z,10.03
2023-04-12T06:18:06.002Z,9.98
2023-04-12T06:20:32.366Z,10.03
2023-04-12T06:22:58.706Z,10.06
2023-04-12T06:25:25.020Z,10.13
2023-04-12T06:27:51.332Z,10.13
2023-04-12T06:30:17.620Z,10.13
2023-04-12T06:32:43.965Z,10.24
2023-04-12T06:35:10.264Z,10.20
2023-04-12T06:37:36.581Z,10.19
2023-04-12T06:40:02.970Z,10.20
2023-04-12T06:42:29.263Z,10.24
2023-04-12T06:44:55.570Z,10.31
2023-04-12T06:47:21.963Z,10.28
2023-04-12T06:49:48.274Z,10.45
2023-04-12T06:52:14.751Z,10.40
2023-04-12T06:54:41.295Z,10.36
2023-04-12T06:57:07.638Z,10.52
2023-04-12T06:59:33.938Z,10.60
2023-04-12T07:02:00.382Z,10.66
2023-04-12T07:04:26.711Z,10.75
2023-04-12T07:06:53.015Z,10.89
2023-04-12T07:09:19.332Z,10.89
2023-04-12T07:11:45.638Z,10.76
2023-04-12T07:14:11.954Z,10.89
2023-04-12T07:16:38.352Z,10.93
2023-04-12T07:19:04.693Z,10.96
2023-04-12T07:21:31.020Z,10.92
2023-04-12T07:23:57.384Z,10.94
2023-04-12T07:26:23.691Z,11.14
2023-04-12T07:28:49.998Z,11.15
2023-04-12T07:31:16.316Z,11.03
2023-04-12T07:33:43.310Z,11.08
2023-04-12T07:36:10.087Z,11.22
2023-04-12T07:38:36.486Z,11.40
2023-04-12T07:41:02.791Z,11.41
2023-04-12T07:43:29.120Z,11.56
2023-04-12T07:45:55.510Z,11.59
2023-04-12T07:48:21.912Z,11.60
2023-04-12T07:50:48.237Z,11.62
2023-04-12T07:53:14.554Z,11.56
2023-04-12T07:55:40.851Z,11.65
2023-04-12T07:58:07.175Z,11.78
2023-04-12T08:00:33.487Z,11.94
2023-04-12T08:02:59.929Z,11.93
2023-04-12T08:05:26.378Z,11.93
2023-04-12T08:07:52.709Z,12.09
2023-04-12T08:10:19.029Z,12.23
2023-04-12T08:12:45.328Z,12.35
2023-04-12T08:15:11.652Z,12.51
2023-04-12T08:17:38.012Z,12.70
2023-04-12T08:20:04.338Z,12.86
2023-04-12T08:22:30.661Z,12.99
2023-04-12T08:24:56.959Z,13.20
2023-04-12T08:27:23.254Z,13.36
2023-04-12T08:29:49.581Z,13.39
2023-04-12T08:32:15.915Z,13.33
2023-04-12T08:34:44.765Z,13.30
2023-04-12T08:37:12.352Z,13.33
2023-04-12T08:39:38.653Z,13.42
2023-04-12T08:42:04.939Z,13.72
2023-04-12T08:44:31.265Z,13.81
2023-04-12T08:46:57.660Z,13.89
2023-04-12T08:49:24.005Z,13.86
2023-04-12T08:51:50.365Z,13.76
2023-04-12T08:54:16.693Z,13.62
2023-04-12T08:56:43.006Z,13.56
2023-04-12T08:59:09.353Z,13.44
2023-04-12T09:01:35.679Z,13.46
2023-04-12T09:04:02.319Z,13.52
2023-04-12T09:06:28.969Z,13.61
2023-04-12T09:08:55.290Z,13.63
2023-04-12T09:11:21.583Z,13.64
2023-04-12T09:13:47.909Z,13.62
2023-04-12T09:16:14.256Z,13.55
2023-04-12T09:18:40.619Z,13.63
2023-04-12T09:21:06.935Z,13.75
2023-04-12T09:23:33.251Z,13.71
2023-04-12T09:25:59.553Z,13.82
2023-04-12T09:28:26.138Z,13.96
2023-04-12T09:30:52.653Z,14.10
2023-04-12T09:33:19.007Z,14.09
2023-04-12T09:35:45.396Z,14.11
2023-04-12T09:38:11.758Z,14.25
2023-04-12T09:40:38.080Z,14.28
2023-04-12T09:43:04.396Z,14.24
2023-04-12T09:45:30.695Z,14.26
2023-04-12T09:47:57.003Z,14.29
2023-04-12T09:50:23.347Z,14.32
2023-04-12T09:52:49.682Z,14.44
2023-04-12T09:55:16.018Z,14.52
2023-04-12T09:57:42.363Z,14.54
2023-04-12T10:00:08.690Z,14.59
2023-04-12T10:02:35.217Z,14.60
2023-04-12T10:05:01.938Z,14.68
2023-04-12T10:07:28.430Z,14.75
2023-04-12T10:09:54.746Z,14.96
2023-04-12T10:12:21.058Z,14.86
2023-04-12T10:14:47.352Z,14.82
2023-04-12T10:17:13.655Z,14.85
2023-04-12T10:19:39.987Z,14.54
2023-04-12T10:22:06.295Z,14.53
2023-04-12T10:24:32.623Z,14.55
2023-04-12T10:26:58.947Z,14.66
2023-04-12T10:29:25.247Z,14.86
2023-04-12T10:31:51.667Z,14.89
2023-04-12T10:34:18.074Z,14.91
2023-04-12T10:36:44.404Z,14.83
2023-04-12T10:39:10.685Z,14.77
2023-04-12T10:41:37.004Z,14.64
2023-04-12T10:44:03.322Z,14.46
2023-04-12T10:46:29.690Z,14.32
2023-04-12T10:48:56.407Z,14.34
2023-04-12T10:51:22.926Z,14.36
2023-04-12T10:53:49.223Z,14.42
2023-04-12T10:56:15.556Z,14.40
2023-04-12T10:58:42.031Z,14.34
2023-04-12T11:01:08.403Z,14.27
2023-04-12T11:03:34.905Z,14.28
2023-04-12T11:06:09.228Z,14.13
2023-04-12T11:08:39.359Z,13.90
2023-04-12T11:11:05.658Z,13.86
2023-04-12T11:13:31.948Z,13.53
2023-04-12T11:15:58.328Z,13.38
2023-04-12T11:18:24.752Z,13.16
2023-04-12T11:20:51.455Z,12.91
2023-04-12T11:23:17.840Z,12.64
2023-04-12T11:25:44.141Z,12.68
2023-04-12T11:28:25.061Z,12.67
2023-04-12T11:30:54.711Z,12.70
2023-04-12T11:33:21.002Z,12.71
2023-04-12T11:35:47.285Z,12.82
2023-04-12T11:38:13.609Z,12.69
2023-04-12T11:40:39.911Z,12.77
2023-04-12T11:43:06.202Z,12.77
2023-04-12T11:45:32.519Z,12.88
2023-04-12T11:47:58.970Z,12.94
2023-04-12T11:50:25.305Z,12.97
2023-04-12T11:52:51.636Z,13.04
2023-04-12T11:55:17.928Z,12.94
2023-04-12T11:57:44.220Z,13.04
2023-04-12T12:00:10.546Z,13.03
2023-04-12T12:02:43.734Z,13.03
2023-04-12T12:05:19.240Z,12.95
2023-04-12T12:07:45.698Z,13.02
2023-04-12T12:10:16.398Z,13.09
2023-04-12T12:12:47.355Z,13.01
2023-04-12T12:15:13.654Z,13.14
2023-04-12T12:17:39.998Z,13.09
2023-04-12T12:20:06.370Z,13.09
2023-04-12T12:22:32.668Z,13.21
2023-04-12T12:24:58.988Z,13.13
2023-04-12T12:27:25.406Z,13.14
2023-04-12T12:29:51.784Z,13.12
2023-04-12T12:32:18.135Z,13.15
2023-04-12T12:34:44.463Z,13.15
2023-04-12T12:37:10.754Z,13.17
2023-04-12T12:39:37.045Z,13.21
2023-04-12T12:42:03.403Z,13.12
2023-04-12T12:44:29.706Z,13.06
2023-04-12T12:47:03.374Z,13.24
2023-04-12T12:49:39.727Z,13.14
2023-04-12T12:52:06.025Z,12.96
2023-04-12T12:54:41.118Z,12.89
2023-04-12T12:57:08.040Z,12.85
2023-04-12T12:59:34.372Z,12.82
2023-04-12T13:02:00.748Z,12.88
2023-04-12T13:04:27.280Z,12.74
2023-04-12T13:06:53.676Z,12.75
2023-04-12T13:09:19.973Z,12.82
2023-04-12T13:11:46.333Z,12.84
2023-04-12T13:14:12.645Z,12.80
2023-04-12T13:16:38.981Z,12.77
2023-04-12T13:19:05.383Z,12.76
2023-04-12T13:21:31.699Z,12.62
2023-04-12T13:23:58.000Z,12.45
2023-04-12T13:26:24.316Z,12.31
2023-04-12T13:28:50.601Z,12.21
2023-04-12T13:31:16.976Z,12.12
2023-04-12T13:33:43.324Z,12.22
2023-04-12T13:36:10.743Z,12.19
2023-04-12T13:38:37.041Z,12.26
2023-04-12T13:41:03.356Z,12.18
2023-04-12T13:43:29.659Z,12.10
2023-04-12T13:45:56.006Z,12.32
2023-04-12T13:48:22.345Z,12.29
2023-04-12T13:50:50.762Z,12.30
2023-04-12T13:53:18.230Z,12.26
2023-04-12T13:55:44.547Z,12.13
2023-04-12T13:58:10.856Z,12.18
2023-04-12T14:00:37.182Z,12.12
2023-04-12T14:03:03.690Z,12.25
2023-04-12T14:05:30.293Z,12.47
2023-04-12T14:07:56.621Z,12.23
2023-04-12T14:10:22.943Z,12.48
2023-04-12T14:12:49.247Z,12.46
2023-04-12T14:15:15.545Z,12.42
2023-04-12T14:17:42.032Z,12.29
2023-04-12T14:20:08.362Z,12.23
2023-04-12T14:22:34.669Z,12.29
2023-04-12T14:25:00.995Z,12.26
2023-04-12T14:27:27.304Z,12.02
2023-04-12T14:29:53.596Z,12.08
2023-04-12T14:32:19.957Z,11.93
2023-04-12T14:34:46.292Z,11.87
2023-04-12T14:37:12.620Z,11.77
2023-04-12T14:39:38.928Z,11.58
2023-04-12T14:42:05.223Z,11.59
2023-04-12T14:44:31.525Z,11.81
2023-04-12T14:46:58.001Z,11.51
2023-04-12T14:49:24.349Z,11.39
2023-04-12T14:51:50.655Z,11.43
2023-04-12T14:54:16.969Z,11.48
2023-04-12T14:56:51.156Z,11.59
2023-04-12T14:59:19.080Z,11.54
2023-04-12T15:01:45.468Z,11.42
2023-04-12T15:04:11.945Z,11.55
2023-04-12T15:06:38.475Z,11.46
2023-04-12T15:09:06.466Z,11.40
2023-04-12T15:11:33.102Z,11.45
2023-04-12T15:13:59.626Z,11.36
2023-04-12T15:16:26.212Z,11.32
2023-04-12T15:18:52.570Z,11.33
2023-04-12T15:21:18.930Z,11.37
2023-04-12T15:23:45.246Z,11.26
2023-04-12T15:26:11.543Z,11.27
2023-04-12T15:28:37.880Z,11.19
2023-04-12T15:31:04.198Z,11.10
2023-04-12T15:33:30.501Z,11.11
2023-04-12T15:35:56.838Z,11.05
2023-04-12T15:38:23.833Z,11.04
2023-04-12T15:40:50.529Z,11.18
2023-04-12T15:43:16.919Z,11.05
2023-04-12T15:45:43.261Z,10.86
2023-04-12T15:48:09.584Z,11.04
2023-04-12T15:50:35.910Z,10.89
2023-04-12T15:53:02.203Z,10.91
2023-04-12T15:55:28.513Z,10.77
2023-04-12T15:57:54.839Z,10.69
2023-04-12T16:00:21.362Z,10.68
2023-04-12T16:02:47.920Z,10.70
2023-04-12T16:05:14.387Z,10.80
2023-04-12T16:07:40.706Z,10.88
2023-04-12T16:10:07.004Z,10.91
2023-04-12T16:12:33.327Z,10.67
2023-04-12T16:14:59.622Z,10.80
2023-04-12T16:17:26.039Z,10.78
2023-04-12T16:19:52.424Z,10.70
2023-04-12T16:22:18.725Z,10.73
2023-04-12T16:24:45.024Z,10.88
2023-04-12T16:27:11.385Z,10.84
2023-04-12T16:29:37.694Z,10.87
2023-04-12T16:32:04.028Z,10.74
2023-04-12T16:34:30.380Z,10.77
2023-04-12T16:36:56.671Z,10.77
2023-04-12T16:39:22.969Z,10.83
2023-04-12T16:41:49.336Z,10.69
2023-04-12T16:44:15.634Z,10.66
2023-04-12T16:46:42.011Z,10.60
2023-04-12T16:49:08.352Z,10.52
2023-04-12T16:51:36.658Z,10.60
2023-04-12T16:54:03.764Z,10.55
2023-04-12T16:56:30.104Z,10.41
2023-04-12T16:58:56.421Z,10.43
2023-04-12T17:01:22.718Z,10.43
2023-04-12T17:03:49.181Z,10.51
2023-04-12T17:06:15.640Z,10.52
2023-04-12T17:08:41.952Z,10.59
2023-04-12T17:11:08.348Z,10.66
2023-04-12T17:13:34.719Z,10.65
2023-04-12T17:16:01.057Z,10.64
2023-04-12T17:18:27.382Z,10.58
2023-04-12T17:20:53.688Z,10.51
2023-04-12T17:23:20.129Z,10.54
2023-04-12T17:25:46.923Z,10.53
2023-04-12T17:28:13.208Z,10.63
2023-04-12T17:30:40.033Z,10.53
2023-04-12T17:33:06.396Z,10.44
2023-04-12T17:35:32.770Z,10.39
2023-04-12T17:37:59.115Z,10.43
2023-04-12T17:40:25.441Z,10.29
2023-04-12T17:42:51.742Z,10.30
2023-04-12T17:45:18.060Z,10.31
2023-04-12T17:47:44.445Z,10.15
2023-04-12T17:50:10.746Z,10.19
2023-04-12T17:52:37.061Z,10.19
2023-04-12T17:55:03.462Z,10.37
2023-04-12T17:57:29.764Z,10.26
2023-04-12T17:59:56.067Z,10.23
2023-04-12T18:02:22.776Z,10.21
2023-04-12T18:04:49.339Z,10.38
2023-04-12T18:07:15.633Z,10.22
2023-04-12T18:09:41.952Z,10.10
2023-04-12T18:12:08.245Z,10.09
2023-04-12T18:14:34.559Z,10.09
2023-04-12T18:17:00.879Z,9.99
2023-04-12T18:19:27.185Z,10.00
2023-04-12T18:21:53.522Z,9.97
2023-04-12T18:24:19.838Z,9.92
2023-04-12T18:26:46.156Z,10.00
2023-04-12T18:29:12.462Z,10.08
2023-04-12T18:31:38.871Z,10.09
2023-04-12T18:34:05.215Z,10.13
2023-04-12T18:36:31.505Z,10.04
2023-04-12T18:38:57.856Z,10.06
2023-04-12T18:41:24.163Z,10.02
2023-04-12T18:43:50.473Z,9.97
2023-04-12T18:46:17.087Z,10.05
2023-04-12T18:48:43.490Z,9.94
2023-04-12T18:51:09.992Z,10.02
2023-04-12T18:53:36.358Z,9.93
2023-04-12T18:56:02.654Z,9.85
2023-04-12T18:58:41.537Z,9.80
2023-04-12T19:01:15.303Z,9.83
2023-04-12T19:03:41.814Z,10.01
2023-04-12T19:06:08.175Z,9.93
2023-04-12T19:08:34.502Z,10.05
2023-04-12T19:11:00.797Z,9.99
2023-04-12T19:13:27.104Z,9.91
2023-04-12T19:15:53.514Z,9.91
2023-04-12T19:18:19.822Z,9.88
2023-04-12T19:20:46.119Z,9.89
2023-04-12T19:23:12.428Z,9.76
2023-04-12T19:25:38.743Z,9.65
2023-04-12T19:28:05.060Z,9.37
2023-04-12T19:30:31.366Z,9.23
2023-04-12T19:32:57.708Z,9.21
2023-04-12T19:35:24.040Z,9.07
2023-04-12T19:37:50.355Z,9.20
2023-04-12T19:40:16.644Z,9.17
2023-04-12T19:42:42.946Z,9.21
2023-04-12T19:45:09.320Z,9.30
2023-04-12T19:47:35.657Z,9.08
2023-04-12T19:50:01.954Z,9.06
2023-04-12T19:52:28.451Z,9.02
2023-04-12T19:54:54.767Z,9.03
2023-04-12T19:57:21.068Z,9.05
2023-04-12T19:59:47.400Z,9.05
2023-04-12T20:02:13.726Z,8.96
2023-04-12T20:04:40.097Z,9.04
2023-04-12T20:07:06.436Z,8.97
2023-04-12T20:09:32.747Z,9.01
2023-04-12T20:11:59.069Z,9.03
2023-04-12T20:14:26.932Z,8.85
2023-04-12T20:16:53.488Z,8.89
2023-04-12T20:19:19.810Z,8.86
2023-04-12T20:21:46.133Z,8.96
2023-04-12T20:24:12.438Z,8.95
2023-04-12T20:26:38.722Z,8.90
2023-04-12T20:29:05.051Z,8.90
2023-04-12T20:31:31.511Z,8.88
2023-04-12T20:33:57.938Z,8.90
2023-04-12T20:36:24.244Z,8.90
2023-04-12T20:38:50.524Z,8.99
2023-04-12T20:41:16.809Z,8.88
2023-04-12T20:43:43.100Z,8.65
2023-04-12T20:46:09.481Z,8.76
2023-04-12T20:48:35.793Z,8.61
2023-04-12T20:51:02.128Z,8.68
2023-04-12T20:53:28.426Z,8.91
2023-04-12T20:55:54.720Z,8.83
2023-04-12T20:58:21.017Z,8.85
2023-04-12T21:00:47.309Z,8.69
2023-04-12T21:03:13.757Z,8.74
2023-04-12T21:05:40.116Z,8.73
2023-04-12T21:08:06.397Z,8.70
2023-04-12T21:10:32.679Z,8.64
2023-04-12T21:12:58.984Z,8.75
2023-04-12T21:15:25.272Z,8.64
2023-04-12T21:17:51.612Z,8.51
2023-04-12T21:20:17.970Z,8.56
2023-04-12T21:22:44.263Z,8.44
2023-04-12T21:25:10.572Z,8.42
2023-04-12T21:27:36.876Z,8.33
2023-04-12T21:30:03.157Z,8.32
2023-04-12T21:32:29.472Z,8.18
2023-04-12T21:34:55.787Z,8.27
2023-04-12T21:37:22.089Z,8.10
2023-04-12T21:39:48.405Z,7.97
2023-04-12T21:42:14.842Z,7.98
2023-04-12T21:44:41.137Z,7.86
2023-04-12T21:47:07.428Z,7.92
2023-04-12T21:49:33.746Z,7.92
2023-04-12T21:52:00.035Z,7.98
2023-04-12T21:54:26.329Z,7.90
2023-04-12T21:56:52.690Z,7.93
2023-04-12T21:59:18.988Z,8.02
2023-04-12T22:01:45.294Z,8.14
2023-04-12T22:04:11.608Z,8.14
2023-04-12T22:06:37.931Z,8.17
2023-04-12T22:09:04.238Z,7.94
2023-04-12T22:11:30.619Z,7.72
2023-04-12T22:13:56.945Z,7.70
2023-04-12T22:16:23.321Z,7.80
2023-04-12T22:18:49.728Z,7.86
2023-04-12T22:21:16.012Z,7.97
2023-04-12T22:23:42.311Z,7.75
2023-04-12T22:26:08.608Z,7.74
2023-04-12T22:28:34.888Z,7.82
2023-04-12T22:31:01.208Z,7.73
2023-04-12T22:33:27.514Z,7.80
2023-04-12T22:35:53.820Z,7.77
2023-04-12T22:38:20.107Z,7.89
2023-04-12T22:40:46.417Z,7.74
2023-04-12T22:43:12.706Z,7.76
2023-04-12T22:45:38.998Z,7.57
2023-04-12T22:48:05.375Z,7.82
2023-04-12T22:50:31.678Z,7.71
2023-04-12T22:52:57.963Z,7.73
2023-04-12T22:55:24.252Z,7.71
2023-04-12T22:57:50.528Z,7.72
2023-04-12T23:00:17.176Z,7.85
2023-04-12T23:02:43.675Z,7.79
2023-04-12T23:05:10.082Z,7.62
2023-04-12T23:07:36.385Z,7.34
2023-04-12T23:10:02.694Z,7.28
2023-04-12T23:12:28.991Z,7.39
2023-04-12T23:14:55.321Z,7.47
2023-04-12T23:17:21.660Z,7.55
2023-04-12T23:19:47.961Z,7.46
2023-04-12T23:22:14.247Z,7.42
2023-04-12T23:24:40.554Z,7.33
2023-04-12T23:27:06.853Z,7.37
2023-04-12T23:29:33.146Z,7.33
2023-04-12T23:31:59.580Z,7.28
2023-04-12T23:34:25.962Z,7.31
2023-04-12T23:36:52.252Z,7.19
2023-04-12T23:39:18.546Z,7.21
2023-04-12T23:41:44.837Z,7.25
2023-04-12T23:44:11.121Z,7.23
2023-04-12T23:46:37.449Z,7.37
2023-04-12T23:49:03.786Z,7.22
2023-04-12T23:51:30.078Z,7.05
2023-04-12T23:53:56.566Z,7.24
2023-04-12T23:56:22.977Z,7.02
2023-04-12T23:58:49.338Z,7.06
